Time;durP1;ratioP1;P1;durP2;ratioP2;P2;SDS_P1;SDS_P2;PMS_P1;PMS_P2;Temp;Humidity;BMP_temperature;BMP_pressure;BME280_temperature;BME280_humidity;BME280_pressure;Samples;Min_cycle;Max_cycle;Signal;HPM_P1;HPM_P2
2023/09/11 00:01:29;;;;;;;21.25;17.20;;;24.00;99.90;;;;;;5080030;28;20029;-76
2023/09/11 00:03:56;;;;;;;21.92;17.40;;;24.00;99.90;;;;;;5070309;28;20036;-75
2023/09/11 00:06:22;;;;;;;22.55;17.45;;;23.90;99.90;;;;;;5075699;28;20366;-76
2023/09/11 00:08:47;;;;;;;23.58;19.45;;;23.90;99.90;;;;;;5074531;28;20050;-76
2023/09/11 00:11:13;;;;;;;26.20;18.42;;;23.90;99.90;;;;;;5076862;28;20078;-76
2023/09/11 00:13:39;;;;;;;25.08;19.45;;;23.90;99.90;;;;;;5083383;28;20533;-76
2023/09/11 00:16:04;;;;;;;19.63;17.55;;;23.90;99.90;;;;;;5067667;28;20402;-73
2023/09/11 00:18:30;;;;;;;19.33;16.77;;;23.90;99.90;;;;;;5079370;28;20047;-76
2023/09/11 00:20:56;;;;;;;20.05;16.73;;;23.90;99.90;;;;;;5076004;28;20043;-76
2023/09/11 00:23:22;;;;;;;25.33;15.13;;;23.90;99.90;;;;;;5080984;28;20048;-76
2023/09/11 00:25:47;;;;;;;20.85;16.40;;;23.90;99.90;;;;;;5076892;28;20140;-76
2023/09/11 00:28:13;;;;;;;19.50;17.10;;;23.80;99.90;;;;;;5077252;28;20105;-76
2023/09/11 00:30:39;;;;;;;22.33;17.08;;;23.90;99.90;;;;;;5069245;28;20374;-75
2023/09/11 00:33:05;;;;;;;20.58;18.38;;;23.90;99.90;;;;;;5073240;28;20142;-76
2023/09/11 00:35:31;;;;;;;21.42;17.17;;;23.90;99.90;;;;;;5080253;28;20027;-76
2023/09/11 00:37:56;;;;;;;19.75;17.67;;;23.90;99.90;;;;;;5075089;28;20405;-75
2023/09/11 00:40:22;;;;;;;26.05;17.92;;;23.80;99.90;;;;;;5080468;28;20032;-75
2023/09/11 00:42:48;;;;;;;25.65;18.63;;;23.80;99.90;;;;;;5066518;28;20057;-76
2023/09/11 00:45:13;;;;;;;22.08;17.27;;;23.80;99.90;;;;;;5075710;28;20034;-76
2023/09/11 00:47:42;;;;;;;21.73;17.23;;;23.80;99.90;;;;;;5074986;28;20055;-75
2023/09/11 00:50:10;;;;;;;22.50;18.40;;;23.80;99.90;;;;;;5072866;28;20021;-76
2023/09/11 00:52:36;;;;;;;19.60;17.55;;;23.80;99.90;;;;;;5074323;28;20536;-75
2023/09/11 00:55:03;;;;;;;25.70;16.83;;;23.80;99.90;;;;;;5072491;28;20120;-76
2023/09/11 00:57:29;;;;;;;24.38;18.65;;;23.80;99.90;;;;;;5081718;28;20498;-77
2023/09/11 00:59:55;;;;;;;21.85;18.63;;;23.80;99.90;;;;;;5078223;28;20021;-75
2023/09/11 01:02:21;;;;;;;23.75;18.00;;;23.80;99.90;;;;;;5075431;28;20009;-76
2023/09/11 01:04:48;;;;;;;19.70;17.80;;;23.70;99.90;;;;;;5067088;28;20025;-76
2023/09/11 01:07:17;;;;;;;22.60;20.27;;;23.60;99.90;;;;;;5073030;28;20027;-75
2023/09/11 01:09:43;;;;;;;24.45;20.02;;;23.50;99.90;;;;;;5080460;28;20463;-76
2023/09/11 01:12:08;;;;;;;24.35;18.60;;;23.50;99.90;;;;;;5075315;28;20017;-75
2023/09/11 01:14:37;;;;;;;22.85;17.13;;;23.50;99.90;;;;;;5071240;28;20485;-76
2023/09/11 01:17:13;;;;;;;18.98;17.00;;;23.50;99.90;;;;;;5069984;28;20096;-76
2023/09/11 01:20:09;;;;;;;20.75;17.02;;;23.50;99.90;;;;;;5076785;28;20024;-76
2023/09/11 01:23:12;;;;;;;19.27;16.60;;;23.50;99.90;;;;;;5064502;28;20501;-76
2023/09/11 01:25:56;;;;;;;19.17;16.73;;;23.50;99.90;;;;;;5079000;28;20024;-76
2023/09/11 01:28:22;;;;;;;21.83;16.20;;;23.50;99.90;;;;;;5076801;28;20024;-75
2023/09/11 01:30:49;;;;;;;20.13;17.92;;;23.50;99.90;;;;;;5078814;28;20487;-74
2023/09/11 01:33:15;;;;;;;20.27;17.42;;;23.50;99.90;;;;;;5074780;28;20156;-75
2023/09/11 01:35:41;;;;;;;18.73;16.80;;;23.40;99.90;;;;;;5071405;28;20159;-74
2023/09/11 01:38:08;;;;;;;22.83;17.00;;;23.40;99.90;;;;;;5074689;28;20058;-75
2023/09/11 01:40:36;;;;;;;19.05;16.70;;;23.40;99.90;;;;;;5074493;28;20097;-75
2023/09/11 01:43:05;;;;;;;19.02;17.05;;;23.40;99.90;;;;;;5070860;28;20017;-76
2023/09/11 01:45:32;;;;;;;19.17;17.15;;;23.40;99.90;;;;;;5076502;28;20111;-75
2023/09/11 01:48:01;;;;;;;24.50;18.13;;;23.30;99.90;;;;;;5067857;28;20099;-75
2023/09/11 01:50:28;;;;;;;18.98;16.45;;;23.30;99.90;;;;;;5079084;28;20142;-76
2023/09/11 01:52:55;;;;;;;19.48;17.00;;;23.20;99.90;;;;;;5066751;28;20107;-75
2023/09/11 01:55:21;;;;;;;17.90;15.68;;;23.20;99.90;;;;;;5081856;28;20036;-74
2023/09/11 01:57:46;;;;;;;22.25;17.08;;;23.20;99.90;;;;;;5084840;28;20020;-76
2023/09/11 02:00:13;;;;;;;20.33;15.20;;;23.10;99.90;;;;;;5075163;28;20500;-76
2023/09/11 02:02:39;;;;;;;21.15;15.52;;;23.00;99.90;;;;;;5077294;28;20024;-75
2023/09/11 02:05:05;;;;;;;16.92;14.88;;;23.00;99.90;;;;;;5068429;28;20024;-75
2023/09/11 02:07:31;;;;;;;16.58;14.90;;;23.10;99.90;;;;;;5065826;28;20028;-74
2023/09/11 02:09:56;;;;;;;18.45;16.08;;;23.10;99.90;;;;;;5072009;28;20057;-75
2023/09/11 02:12:25;;;;;;;21.23;16.42;;;23.00;99.90;;;;;;5074977;28;20028;-75
2023/09/11 02:14:50;;;;;;;23.73;16.88;;;23.00;99.90;;;;;;5066540;28;20045;-76
2023/09/11 02:17:16;;;;;;;22.00;16.92;;;23.00;99.90;;;;;;5064134;28;20480;-74
2023/09/11 02:19:42;;;;;;;17.00;14.73;;;22.90;99.90;;;;;;5073379;28;20496;-75
2023/09/11 02:22:08;;;;;;;22.75;15.70;;;22.90;99.90;;;;;;5074623;28;20031;-76
2023/09/11 02:24:33;;;;;;;22.85;16.08;;;22.90;99.90;;;;;;5070721;28;20382;-76
2023/09/11 02:26:59;;;;;;;17.45;15.63;;;23.00;99.90;;;;;;5080575;28;20039;-75
2023/09/11 02:29:25;;;;;;;19.60;16.33;;;22.90;99.90;;;;;;5070627;28;20527;-74
2023/09/11 02:31:50;;;;;;;21.42;17.95;;;22.80;99.90;;;;;;5067297;28;20032;-75
2023/09/11 02:34:16;;;;;;;21.23;17.23;;;22.80;99.90;;;;;;5077040;28;20044;-74
2023/09/11 02:36:42;;;;;;;19.60;16.60;;;22.80;99.90;;;;;;5070349;28;20419;-75
2023/09/11 02:39:08;;;;;;;18.17;16.38;;;22.80;99.90;;;;;;5074690;28;20017;-75
2023/09/11 02:41:33;;;;;;;19.10;16.27;;;22.80;99.90;;;;;;5076143;28;20346;-74
2023/09/11 02:43:59;;;;;;;21.70;17.48;;;22.70;99.90;;;;;;5070714;28;20021;-74
2023/09/11 02:46:24;;;;;;;18.55;16.50;;;22.70;99.90;;;;;;5084880;28;20544;-75
2023/09/11 02:48:50;;;;;;;21.65;16.92;;;22.70;99.90;;;;;;5068864;28;20563;-75
2023/09/11 02:51:17;;;;;;;20.10;18.20;;;22.70;99.90;;;;;;5078486;28;20625;-74
2023/09/11 02:53:43;;;;;;;18.05;15.63;;;22.70;99.90;;;;;;5072091;28;20024;-75
2023/09/11 02:56:08;;;;;;;18.67;16.70;;;22.70;99.90;;;;;;5071510;28;20043;-74
2023/09/11 02:58:34;;;;;;;18.83;16.58;;;22.60;99.90;;;;;;5073664;28;20079;-75
2023/09/11 03:01:02;;;;;;;18.52;16.45;;;22.60;99.90;;;;;;5074816;28;20032;-75
2023/09/11 03:03:28;;;;;;;20.00;16.95;;;22.60;99.90;;;;;;5074051;28;20090;-76
2023/09/11 03:06:01;;;;;;;23.55;16.95;;;22.60;99.90;;;;;;5072070;28;20071;-74
2023/09/11 03:08:27;;;;;;;23.27;17.00;;;22.50;99.90;;;;;;5080574;28;20046;-74
2023/09/11 03:10:54;;;;;;;19.02;17.02;;;22.60;99.90;;;;;;5073072;28;20028;-75
2023/09/11 03:13:19;;;;;;;16.85;15.15;;;22.50;99.90;;;;;;5071146;28;20044;-75
2023/09/11 03:15:45;;;;;;;17.40;15.70;;;22.50;99.90;;;;;;5081531;28;20063;-75
2023/09/11 03:18:11;;;;;;;20.52;15.77;;;22.50;99.90;;;;;;5070907;28;20411;-75
2023/09/11 03:20:38;;;;;;;21.50;16.25;;;22.50;99.90;;;;;;5082485;28;20137;-75
2023/09/11 03:23:04;;;;;;;18.85;16.83;;;22.50;99.90;;;;;;5080414;28;20017;-75
2023/09/11 03:25:34;;;;;;;22.05;17.05;;;22.40;99.90;;;;;;5075936;28;20025;-75
2023/09/11 03:28:00;;;;;;;22.50;19.60;;;22.40;99.90;;;;;;5075065;28;20485;-75
2023/09/11 03:30:26;;;;;;;20.83;17.00;;;22.30;99.90;;;;;;5074884;28;20166;-74
2023/09/11 03:32:52;;;;;;;21.77;17.15;;;22.30;99.90;;;;;;5073027;28;20485;-75
2023/09/11 03:35:17;;;;;;;18.15;16.30;;;22.30;99.90;;;;;;5078504;28;20427;-75
2023/09/11 03:37:43;;;;;;;19.67;15.65;;;22.30;99.90;;;;;;5076400;28;20634;-74
2023/09/11 03:40:13;;;;;;;18.33;16.27;;;22.30;99.90;;;;;;5078408;28;20029;-74
2023/09/11 03:42:38;;;;;;;24.42;16.25;;;22.20;99.90;;;;;;5078247;28;20470;-75
2023/09/11 03:45:05;;;;;;;21.90;16.23;;;22.10;99.90;;;;;;5075030;28;20478;-76
2023/09/11 03:47:31;;;;;;;17.42;14.40;;;22.10;99.90;;;;;;5086768;28;20048;-74
2023/09/11 03:49:57;;;;;;;18.40;15.85;;;22.10;99.90;;;;;;5073328;28;20068;-74
2023/09/11 03:52:23;;;;;;;20.38;18.20;;;22.10;99.90;;;;;;5079894;28;20031;-74
2023/09/11 03:54:48;;;;;;;29.45;17.88;;;22.10;99.90;;;;;;5073957;28;20048;-75
2023/09/11 03:57:14;;;;;;;23.15;19.95;;;22.10;99.90;;;;;;5077038;28;20477;-75
2023/09/11 03:59:40;;;;;;;22.23;17.35;;;22.00;99.90;;;;;;5076208;28;20028;-75
2023/09/11 04:02:05;;;;;;;20.13;16.05;;;22.10;99.90;;;;;;5075423;28;20053;-74
2023/09/11 04:04:31;;;;;;;21.35;19.10;;;22.10;99.90;;;;;;5081090;28;20492;-74
2023/09/11 04:06:57;;;;;;;20.02;17.92;;;22.00;99.90;;;;;;5072090;28;20028;-73
2023/09/11 04:09:22;;;;;;;25.08;18.70;;;21.90;99.90;;;;;;5076423;28;20028;-75
2023/09/11 04:11:48;;;;;;;20.63;18.33;;;22.00;99.90;;;;;;5068400;28;20442;-73
2023/09/11 04:14:14;;;;;;;21.63;17.58;;;21.90;99.90;;;;;;5074606;28;20044;-75
2023/09/11 04:16:40;;;;;;;23.00;19.15;;;21.90;99.90;;;;;;5083505;28;20029;-75
2023/09/11 04:19:07;;;;;;;23.25;18.33;;;21.90;99.90;;;;;;5080241;28;20116;-74
2023/09/11 04:21:32;;;;;;;19.92;17.60;;;21.90;99.90;;;;;;5069712;28;20434;-75
2023/09/11 04:23:58;;;;;;;20.77;16.40;;;21.80;99.90;;;;;;5075441;28;20508;-75
2023/09/11 04:26:24;;;;;;;20.15;15.93;;;21.80;99.90;;;;;;5077440;28;20020;-74
2023/09/11 04:28:50;;;;;;;19.15;16.88;;;21.80;99.90;;;;;;5079090;28;20032;-75
2023/09/11 04:31:15;;;;;;;16.85;15.25;;;21.70;99.90;;;;;;5083487;28;20028;-75
2023/09/11 04:33:41;;;;;;;20.02;17.02;;;21.60;99.90;;;;;;5070359;28;20024;-74
2023/09/11 04:36:07;;;;;;;21.55;17.02;;;21.70;99.90;;;;;;5070506;28;20051;-76
2023/09/11 04:38:32;;;;;;;19.33;16.83;;;21.60;99.90;;;;;;5080071;28;20021;-74
2023/09/11 04:40:58;;;;;;;19.75;16.05;;;21.70;99.90;;;;;;5070349;28;20036;-73
2023/09/11 04:43:24;;;;;;;19.33;17.13;;;21.70;99.90;;;;;;5072167;28;20023;-75
2023/09/11 04:45:50;;;;;;;24.35;19.80;;;21.60;99.90;;;;;;5075830;28;20170;-76
2023/09/11 04:48:16;;;;;;;20.33;17.85;;;21.60;99.90;;;;;;5078617;28;20085;-74
2023/09/11 04:50:42;;;;;;;22.45;18.00;;;21.60;99.90;;;;;;5079373;28;20052;-75
2023/09/11 04:53:08;;;;;;;22.00;19.77;;;21.50;99.90;;;;;;5070061;28;20487;-75
2023/09/11 04:55:33;;;;;;;20.77;18.65;;;21.50;99.90;;;;;;5080046;28;20139;-74
2023/09/11 04:57:59;;;;;;;24.02;20.60;;;21.60;99.90;;;;;;5070243;28;20108;-75
2023/09/11 05:00:26;;;;;;;24.48;21.73;;;21.50;99.90;;;;;;5078637;28;20066;-74
2023/09/11 05:02:52;;;;;;;27.38;19.35;;;21.50;99.90;;;;;;5071982;28;20031;-74
2023/09/11 05:05:18;;;;;;;22.40;18.90;;;21.50;99.90;;;;;;5077473;28;20385;-74
2023/09/11 05:07:43;;;;;;;22.02;16.05;;;21.40;99.90;;;;;;5068260;28;20572;-73
2023/09/11 05:10:09;;;;;;;23.45;20.60;;;21.50;99.90;;;;;;5077377;28;20388;-76
2023/09/11 05:12:35;;;;;;;20.25;18.23;;;21.40;99.90;;;;;;5073475;28;20020;-76
2023/09/11 05:15:02;;;;;;;23.48;16.23;;;21.50;99.90;;;;;;5073152;28;20033;-76
2023/09/11 05:17:28;;;;;;;18.02;16.30;;;21.50;99.90;;;;;;5068639;28;20016;-77
2023/09/11 05:19:54;;;;;;;19.85;15.18;;;21.50;99.90;;;;;;5080645;28;20020;-76
2023/09/11 05:22:19;;;;;;;29.63;19.00;;;21.50;99.90;;;;;;5080747;28;20028;-77
2023/09/11 05:24:45;;;;;;;23.13;17.83;;;21.50;99.90;;;;;;5069690;28;20305;-77
2023/09/11 05:27:11;;;;;;;22.02;16.20;;;21.50;99.90;;;;;;5072446;28;20052;-76
2023/09/11 05:29:36;;;;;;;20.20;15.82;;;21.50;99.90;;;;;;5078424;28;20051;-76
2023/09/11 05:32:02;;;;;;;18.02;16.13;;;21.50;99.90;;;;;;5068264;28;20024;-76
2023/09/11 05:34:28;;;;;;;25.27;14.45;;;21.50;99.90;;;;;;5077688;28;20396;-75
2023/09/11 05:36:54;;;;;;;21.52;17.33;;;21.50;99.90;;;;;;5070460;28;20033;-77
2023/09/11 05:39:20;;;;;;;23.05;16.55;;;21.40;99.90;;;;;;5079049;28;20152;-76
2023/09/11 05:41:45;;;;;;;16.85;14.38;;;21.50;99.90;;;;;;5070601;28;20152;-76
2023/09/11 05:44:13;;;;;;;18.13;13.82;;;21.50;99.90;;;;;;5078032;28;20021;-73
2023/09/11 05:46:39;;;;;;;18.55;14.45;;;21.50;99.90;;;;;;5075586;28;20032;-75
2023/09/11 05:49:05;;;;;;;16.45;14.70;;;21.50;99.90;;;;;;5073739;28;20102;-75
2023/09/11 05:51:30;;;;;;;19.92;15.35;;;21.50;99.90;;;;;;5081956;28;20028;-75
2023/09/11 05:53:56;;;;;;;22.23;16.55;;;21.60;99.90;;;;;;5074224;28;20025;-76
2023/09/11 05:56:22;;;;;;;17.63;14.38;;;21.50;99.90;;;;;;5068449;28;20025;-76
2023/09/11 05:58:48;;;;;;;19.73;15.18;;;21.50;99.90;;;;;;5064937;28;20486;-76
2023/09/11 06:01:14;;;;;;;18.42;15.10;;;21.50;99.90;;;;;;5072754;28;20025;-76
2023/09/11 06:03:40;;;;;;;22.70;16.58;;;21.50;99.90;;;;;;5072128;28;20037;-75
2023/09/11 06:06:06;;;;;;;20.55;14.13;;;21.50;99.90;;;;;;5078946;28;20029;-75
2023/09/11 06:08:35;;;;;;;20.75;13.90;;;21.50;99.90;;;;;;5070979;28;20028;-75
2023/09/11 06:11:01;;;;;;;19.70;14.13;;;21.60;99.90;;;;;;5078402;28;20025;-74
2023/09/11 06:13:26;;;;;;;16.88;14.75;;;21.60;99.90;;;;;;5074743;28;20055;-77
2023/09/11 06:16:01;;;;;;;17.70;15.05;;;21.60;99.90;;;;;;5077671;28;20499;-77
2023/09/11 06:18:27;;;;;;;16.08;14.38;;;21.60;99.90;;;;;;5072792;28;20024;-75
2023/09/11 06:20:53;;;;;;;23.98;14.13;;;21.60;99.90;;;;;;5074249;28;20024;-74
2023/09/11 06:23:19;;;;;;;17.77;14.07;;;21.60;99.90;;;;;;5083787;28;20031;-73
2023/09/11 06:25:44;;;;;;;24.25;14.93;;;21.50;99.90;;;;;;5068924;28;20027;-74
2023/09/11 06:28:10;;;;;;;16.25;12.25;;;21.60;99.90;;;;;;5073489;28;20100;-71
2023/09/11 06:30:36;;;;;;;26.17;12.40;;;21.60;99.90;;;;;;5073358;28;20239;-75
2023/09/11 06:33:01;;;;;;;18.45;13.45;;;21.70;99.90;;;;;;5064856;28;20052;-73
2023/09/11 06:35:27;;;;;;;17.15;12.68;;;21.70;99.90;;;;;;5070394;28;20074;-74
2023/09/11 06:37:53;;;;;;;20.10;13.27;;;21.70;99.90;;;;;;5069463;28;20025;-75
2023/09/11 06:40:18;;;;;;;15.57;13.20;;;21.70;99.90;;;;;;5077763;28;20028;-75
2023/09/11 06:42:44;;;;;;;16.48;12.25;;;21.70;99.90;;;;;;5073318;28;20408;-74
2023/09/11 06:45:10;;;;;;;20.60;13.40;;;21.80;99.90;;;;;;5067801;28;20110;-74
2023/09/11 06:47:36;;;;;;;20.67;12.80;;;21.80;99.90;;;;;;5064654;28;20020;-71
2023/09/11 06:50:02;;;;;;;17.08;13.38;;;21.80;99.90;;;;;;5079388;28;20029;-74
2023/09/11 06:52:27;;;;;;;20.90;13.05;;;21.90;99.90;;;;;;5075476;28;20103;-76
2023/09/11 06:54:54;;;;;;;18.05;13.25;;;21.90;99.90;;;;;;5070010;28;20046;-75
2023/09/11 06:57:20;;;;;;;18.27;12.63;;;21.80;99.90;;;;;;5068470;28;20483;-72
2023/09/11 06:59:45;;;;;;;19.80;13.23;;;21.90;99.90;;;;;;5073540;28;20028;-72
2023/09/11 07:02:11;;;;;;;19.58;10.82;;;21.90;99.90;;;;;;5073544;28;20861;-73
2023/09/11 07:04:37;;;;;;;17.25;12.93;;;21.90;99.90;;;;;;5073694;28;20082;-73
2023/09/11 07:07:03;;;;;;;16.77;13.18;;;21.90;99.90;;;;;;5073153;28;20031;-72
2023/09/11 07:09:29;;;;;;;18.42;11.95;;;22.00;99.90;;;;;;5078769;28;20478;-73
2023/09/11 07:11:54;;;;;;;21.95;11.88;;;22.00;99.90;;;;;;5074845;28;20577;-71
2023/09/11 07:14:21;;;;;;;15.55;11.55;;;22.10;99.90;;;;;;5073548;28;20028;-71
2023/09/11 07:16:47;;;;;;;15.43;12.50;;;22.10;99.90;;;;;;5073822;28;20089;-73
2023/09/11 07:19:12;;;;;;;18.42;11.27;;;22.10;99.90;;;;;;5079921;28;20323;-73
2023/09/11 07:21:38;;;;;;;20.08;12.50;;;22.10;99.90;;;;;;5069716;28;20047;-75
2023/09/11 07:24:04;;;;;;;19.88;12.02;;;22.20;99.90;;;;;;5079822;28;20027;-74
2023/09/11 07:26:30;;;;;;;13.75;12.18;;;22.20;99.90;;;;;;5072303;28;20461;-71
2023/09/11 07:29:03;;;;;;;18.65;12.95;;;22.30;99.90;;;;;;5073307;28;20519;-72
2023/09/11 07:31:30;;;;;;;19.85;11.77;;;22.30;99.90;;;;;;5086129;28;20059;-73
2023/09/11 07:33:56;;;;;;;24.58;14.55;;;22.40;99.90;;;;;;5071834;28;20188;-76
2023/09/11 07:36:22;;;;;;;25.95;15.75;;;22.40;99.90;;;;;;5073968;28;20544;-73
2023/09/11 07:38:48;;;;;;;17.17;13.77;;;22.50;99.90;;;;;;5071858;28;20035;-73
2023/09/11 07:41:16;;;;;;;18.70;13.45;;;22.50;99.90;;;;;;5075816;28;20032;-74
2023/09/11 07:43:46;;;;;;;19.90;12.73;;;22.60;99.90;;;;;;5073366;28;20020;-74
2023/09/11 07:46:12;;;;;;;22.60;14.30;;;22.60;99.90;;;;;;5081106;28;20024;-73
2023/09/11 07:48:37;;;;;;;18.15;14.20;;;22.60;99.90;;;;;;5081508;28;20020;-74
2023/09/11 07:51:03;;;;;;;23.88;14.15;;;22.70;99.90;;;;;;5078936;28;20054;-74
2023/09/11 07:53:30;;;;;;;20.60;13.57;;;22.70;99.90;;;;;;5078153;28;20465;-73
2023/09/11 07:55:56;;;;;;;17.58;13.43;;;22.80;99.90;;;;;;5071246;28;20036;-74
2023/09/11 07:58:22;;;;;;;18.08;14.07;;;22.90;99.90;;;;;;5076900;28;20039;-75
2023/09/11 08:00:47;;;;;;;20.35;14.40;;;22.90;99.90;;;;;;5072576;28;20496;-74
2023/09/11 08:03:13;;;;;;;20.73;14.30;;;22.90;99.90;;;;;;5071306;28;20020;-74
2023/09/11 08:05:39;;;;;;;22.58;14.85;;;23.10;99.90;;;;;;5071781;28;20808;-74
2023/09/11 08:08:05;;;;;;;20.25;13.07;;;23.20;99.90;;;;;;5073836;28;20128;-74
2023/09/11 08:10:30;;;;;;;21.50;13.60;;;23.20;99.90;;;;;;5083325;28;20032;-75
2023/09/11 08:12:56;;;;;;;23.50;14.73;;;23.30;99.90;;;;;;5070758;28;20443;-74
2023/09/11 08:15:22;;;;;;;21.02;14.40;;;23.40;99.90;;;;;;5071514;28;20041;-74
2023/09/11 08:17:48;;;;;;;23.55;15.10;;;23.40;99.90;;;;;;5080391;28;20017;-75
2023/09/11 08:20:14;;;;;;;23.30;14.95;;;23.50;99.90;;;;;;5068032;28;20036;-74
2023/09/11 08:22:41;;;;;;;24.25;15.32;;;23.60;99.90;;;;;;5069970;28;20108;-74
2023/09/11 08:25:10;;;;;;;21.60;13.88;;;23.60;99.90;;;;;;5071497;28;20073;-72
2023/09/11 08:27:36;;;;;;;16.90;14.25;;;23.80;99.90;;;;;;5071240;28;20046;-73
2023/09/11 08:30:03;;;;;;;24.58;15.57;;;23.80;99.90;;;;;;5081703;28;20032;-73
2023/09/11 08:32:29;;;;;;;21.27;15.70;;;23.90;99.90;;;;;;5073794;28;20037;-73
2023/09/11 08:34:55;;;;;;;26.88;16.88;;;24.00;99.90;;;;;;5070238;28;20036;-73
2023/09/11 08:37:24;;;;;;;22.55;15.82;;;24.10;99.90;;;;;;5081008;28;20395;-73
2023/09/11 08:39:50;;;;;;;23.88;16.25;;;24.20;99.90;;;;;;5064437;28;20037;-74
2023/09/11 08:42:16;;;;;;;27.90;18.25;;;24.30;99.90;;;;;;5078094;28;20020;-74
2023/09/11 08:44:42;;;;;;;23.98;15.75;;;24.30;99.90;;;;;;5078239;28;20028;-74
2023/09/11 08:47:09;;;;;;;23.90;17.55;;;24.40;99.90;;;;;;5071133;28;20491;-74
2023/09/11 08:49:44;;;;;;;25.40;14.45;;;24.40;99.90;;;;;;5075347;28;20034;-74
2023/09/11 08:52:13;;;;;;;26.20;15.73;;;24.50;99.90;;;;;;5065631;28;20021;-74
2023/09/11 08:54:42;;;;;;;25.83;18.23;;;24.70;99.90;;;;;;5074728;28;20039;-74
2023/09/11 08:57:12;;;;;;;25.23;16.40;;;24.70;99.90;;;;;;5070165;28;20020;-73
2023/09/11 08:59:44;;;;;;;23.17;15.75;;;24.70;99.90;;;;;;5073369;28;20107;-75
2023/09/11 09:02:14;;;;;;;25.90;16.48;;;24.80;99.90;;;;;;5070053;28;20025;-75
2023/09/11 09:04:40;;;;;;;22.70;16.80;;;24.90;99.90;;;;;;5073692;28;20020;-74
2023/09/11 09:07:07;;;;;;;29.55;18.23;;;24.90;99.90;;;;;;5067300;28;20025;-75
2023/09/11 09:09:33;;;;;;;30.42;16.40;;;25.00;99.90;;;;;;5080786;28;20373;-71
2023/09/11 09:12:01;;;;;;;24.55;16.17;;;25.20;99.90;;;;;;5075672;28;20048;-73
2023/09/11 09:14:28;;;;;;;24.15;16.02;;;25.30;99.90;;;;;;5070571;28;20050;-74
2023/09/11 09:16:54;;;;;;;24.98;15.85;;;25.40;99.90;;;;;;5071173;28;20540;-74
2023/09/11 09:19:21;;;;;;;22.10;15.48;;;25.40;99.90;;;;;;5077581;28;20047;-74
2023/09/11 09:22:03;;;;;;;21.58;16.63;;;25.50;99.90;;;;;;5066267;28;20508;-74
2023/09/11 09:24:28;;;;;;;19.27;13.27;;;25.70;99.90;;;;;;5078135;28;20011;-73
2023/09/11 09:27:02;;;;;;;18.65;15.15;;;25.80;99.90;;;;;;5071859;28;20405;-74
2023/09/11 09:29:35;;;;;;;19.40;13.52;;;26.00;99.90;;;;;;5079811;28;20476;-73
2023/09/11 09:32:02;;;;;;;21.38;14.40;;;26.10;99.90;;;;;;5079572;28;20040;-74
2023/09/11 09:34:28;;;;;;;20.40;15.70;;;26.30;99.90;;;;;;5079346;28;20020;-73
2023/09/11 09:36:55;;;;;;;21.05;12.70;;;26.50;99.90;;;;;;5069739;28;20033;-74
2023/09/11 09:39:29;;;;;;;17.92;12.68;;;26.50;99.90;;;;;;5077884;28;20031;-74
2023/09/11 09:42:00;;;;;;;18.15;12.00;;;26.70;99.90;;;;;;5073758;28;20038;-73
2023/09/11 09:44:44;;;;;;;20.65;13.30;;;26.80;99.90;;;;;;5071986;28;20017;-75
2023/09/11 09:47:10;;;;;;;16.88;12.98;;;26.90;99.90;;;;;;5064738;28;20032;-73
2023/09/11 09:49:55;;;;;;;20.55;11.88;;;27.00;99.90;;;;;;5082853;28;20464;-74
2023/09/11 09:52:25;;;;;;;18.35;11.77;;;27.20;99.90;;;;;;5083616;28;20027;-74
2023/09/11 09:54:59;;;;;;;18.38;9.95;;;27.40;99.90;;;;;;5069514;28;20044;-75
2023/09/11 09:57:26;;;;;;;18.45;10.75;;;27.40;99.90;;;;;;5070120;28;20547;-74
2023/09/11 10:00:01;;;;;;;14.93;10.73;;;27.50;99.90;;;;;;5082607;28;20492;-74
2023/09/11 10:02:31;;;;;;;16.85;10.98;;;27.70;99.90;;;;;;5067078;28;20113;-74
2023/09/11 10:05:01;;;;;;;16.00;10.25;;;27.90;99.90;;;;;;5075119;28;20039;-74
2023/09/11 10:07:37;;;;;;;11.48;9.70;;;28.00;99.90;;;;;;5073812;28;20131;-75
2023/09/11 10:10:22;;;;;;;15.35;9.30;;;28.10;99.90;;;;;;5074916;28;20100;-74
2023/09/11 10:13:00;;;;;;;15.52;9.02;;;28.20;99.90;;;;;;5068288;28;20077;-74
2023/09/11 10:15:26;;;;;;;13.27;8.98;;;28.30;99.90;;;;;;5073012;28;20473;-75
2023/09/11 10:17:56;;;;;;;15.45;9.95;;;28.50;99.90;;;;;;5073314;28;20392;-74
2023/09/11 10:20:23;;;;;;;14.82;8.82;;;28.50;99.90;;;;;;5073865;28;20025;-73
2023/09/11 10:23:10;;;;;;;9.35;7.30;;;28.70;99.90;;;;;;5076888;28;20031;-75
2023/09/11 10:25:41;;;;;;;10.65;8.25;;;28.70;99.90;;;;;;5065699;28;20033;-74
2023/09/11 10:28:11;;;;;;;17.38;7.38;;;28.90;99.90;;;;;;5067519;28;20037;-75
2023/09/11 10:30:52;;;;;;;15.07;7.65;;;28.90;99.90;;;;;;5069052;28;20105;-75
2023/09/11 10:33:22;;;;;;;13.50;8.18;;;28.80;99.90;;;;;;5066985;28;20036;-75
2023/09/11 10:35:54;;;;;;;12.43;8.38;;;28.90;99.90;;;;;;5085802;28;20036;-75
2023/09/11 10:38:20;;;;;;;9.77;7.65;;;28.80;99.90;;;;;;5083267;28;20024;-76
2023/09/11 10:40:47;;;;;;;12.02;7.30;;;29.00;99.90;;;;;;5077957;28;20025;-75
2023/09/11 10:43:14;;;;;;;16.55;7.95;;;29.10;99.90;;;;;;5066319;28;20040;-74
2023/09/11 10:45:40;;;;;;;11.00;7.90;;;29.20;99.90;;;;;;5073795;28;20082;-76
2023/09/11 10:48:21;;;;;;;13.23;7.47;;;29.30;99.90;;;;;;5073775;28;20056;-76
2023/09/11 10:50:48;;;;;;;11.52;7.78;;;29.40;99.90;;;;;;5075236;28;20028;-75
2023/09/11 10:53:14;;;;;;;13.30;7.57;;;29.50;99.90;;;;;;5075220;28;20032;-74
2023/09/11 10:55:39;;;;;;;11.77;7.75;;;29.50;99.90;;;;;;5070627;28;20049;-75
2023/09/11 10:58:08;;;;;;;11.93;6.80;;;29.50;99.90;;;;;;5069740;28;20028;-74
2023/09/11 11:00:38;;;;;;;11.25;7.40;;;29.50;99.90;;;;;;5071734;28;20024;-73
2023/09/11 11:03:06;;;;;;;12.05;7.35;;;29.60;99.90;;;;;;5068454;28;20020;-76
2023/09/11 11:05:33;;;;;;;12.02;6.82;;;29.70;99.90;;;;;;5076649;28;20114;-73
2023/09/11 11:07:59;;;;;;;10.20;7.40;;;29.90;99.90;;;;;;5070433;28;20021;-76
2023/09/11 11:10:26;;;;;;;9.25;6.60;;;29.90;99.90;;;;;;5077934;28;20032;-77
2023/09/11 11:13:06;;;;;;;13.88;7.32;;;29.90;99.90;;;;;;5069398;28;20043;-77
2023/09/11 11:15:31;;;;;;;10.35;8.00;;;30.00;99.90;;;;;;5079832;28;20033;-76
2023/09/11 11:18:22;;;;;;;14.57;7.93;;;30.10;99.90;;;;;;5064421;28;20482;-77
2023/09/11 11:21:00;;;;;;;14.73;7.35;;;30.20;99.90;;;;;;5075598;28;20051;-76
2023/09/11 11:23:29;;;;;;;16.00;7.65;;;30.30;99.90;;;;;;5071772;28;20093;-76
2023/09/11 11:25:58;;;;;;;9.57;7.28;;;30.40;99.90;;;;;;5072669;28;20028;-76
2023/09/11 11:28:24;;;;;;;13.57;8.05;;;30.30;99.90;;;;;;5069871;28;20088;-78
2023/09/11 11:30:53;;;;;;;11.98;7.82;;;30.40;99.90;;;;;;5077085;28;20052;-77
2023/09/11 11:33:24;;;;;;;13.20;7.63;;;30.40;99.90;;;;;;5068625;28;20468;-77
2023/09/11 11:35:52;;;;;;;12.38;8.18;;;30.40;99.90;;;;;;5080414;28;20028;-75
2023/09/11 11:38:19;;;;;;;9.48;7.80;;;30.40;99.90;;;;;;5075407;28;20028;-75
2023/09/11 11:40:46;;;;;;;14.05;8.68;;;30.50;99.90;;;;;;5072036;28;20489;-75
2023/09/11 11:43:13;;;;;;;12.05;8.27;;;30.60;99.90;;;;;;5063204;28;20034;-76
2023/09/11 11:45:47;;;;;;;11.18;8.30;;;30.60;99.90;;;;;;5076583;28;20024;-79
2023/09/11 11:48:14;;;;;;;13.90;8.40;;;30.60;99.90;;;;;;5072479;28;20139;-77
2023/09/11 11:50:43;;;;;;;12.52;9.07;;;30.70;99.90;;;;;;5079858;28;20020;-76
2023/09/11 11:53:17;;;;;;;17.95;8.93;;;30.70;99.90;;;;;;5074878;28;20385;-78
2023/09/11 11:55:44;;;;;;;14.95;8.23;;;30.70;99.90;;;;;;5072160;28;20066;-77
2023/09/11 11:58:14;;;;;;;15.80;8.98;;;30.60;99.90;;;;;;5068340;28;20048;-76
2023/09/11 12:00:40;;;;;;;10.98;8.90;;;30.60;99.90;;;;;;5082033;28;20075;-77
2023/09/11 12:03:07;;;;;;;13.27;9.15;;;30.60;99.90;;;;;;5069729;28;20021;-75
2023/09/11 12:05:35;;;;;;;12.48;9.50;;;30.60;99.90;;;;;;5081831;28;20376;-76
2023/09/11 12:08:02;;;;;;;10.45;9.00;;;30.60;99.90;;;;;;5072023;28;20489;-75
2023/09/11 12:10:31;;;;;;;14.73;9.57;;;30.70;99.90;;;;;;5080022;28;20473;-75
2023/09/11 12:12:58;;;;;;;12.48;9.40;;;30.90;99.90;;;;;;5068017;28;20048;-74
2023/09/11 12:15:24;;;;;;;17.90;9.88;;;31.00;99.90;;;;;;5076402;28;20104;-75
2023/09/11 12:17:50;;;;;;;16.73;9.40;;;31.00;99.90;;;;;;5081748;28;20469;-76
2023/09/11 12:20:22;;;;;;;12.13;9.70;;;30.90;99.90;;;;;;5075639;28;20025;-76
2023/09/11 12:22:48;;;;;;;19.65;10.52;;;30.80;99.90;;;;;;5080332;28;20020;-76
2023/09/11 12:25:16;;;;;;;14.00;9.43;;;30.90;99.90;;;;;;5065839;28;20031;-75
2023/09/11 12:27:43;;;;;;;14.35;8.68;;;31.00;99.90;;;;;;5081615;28;20046;-77
2023/09/11 12:30:10;;;;;;;13.02;9.85;;;31.00;99.90;;;;;;5075280;28;20052;-76